createdAt,value
2023-07-05T00:00:39.191Z,14.30
2023-07-05T00:03:06.217Z,14.30
2023-07-05T00:05:37.213Z,14.30
2023-07-05T00:08:05.332Z,14.30
2023-07-05T00:10:32.624Z,14.30
2023-07-05T00:13:00.721Z,14.30
2023-07-05T00:15:29.590Z,14.30
2023-07-05T00:17:56.565Z,14.40
2023-07-05T00:20:24.355Z,14.30
2023-07-05T00:22:52.559Z,14.30
2023-07-05T00:25:20.597Z,14.30
2023-07-05T00:27:48.155Z,14.30
2023-07-05T00:30:15.127Z,14.30
2023-07-05T00:32:42.022Z,14.30
2023-07-05T00:35:09.294Z,14.30
2023-07-05T00:37:36.836Z,14.30
2023-07-05T00:40:04.332Z,14.30
2023-07-05T00:42:31.310Z,14.30
2023-07-05T00:45:13.268Z,14.30
2023-07-05T00:47:43.467Z,14.30
2023-07-05T00:50:17.954Z,14.30
2023-07-05T00:52:45.337Z,14.30
2023-07-05T00:55:13.085Z,14.30
2023-07-05T00:57:43.434Z,14.30
2023-07-05T01:00:14.149Z,14.30
2023-07-05T01:02:44.635Z,14.20
2023-07-05T01:05:12.644Z,14.20
2023-07-05T01:07:40.124Z,14.20
2023-07-05T01:10:10.918Z,14.20
2023-07-05T01:12:47.261Z,14.20
2023-07-05T01:15:18.726Z,14.20
2023-07-05T01:18:12.906Z,14.10
2023-07-05T01:20:43.344Z,14.10
2023-07-05T01:23:19.159Z,14.10
2023-07-05T01:26:07.419Z,14.10
2023-07-05T01:28:49.140Z,14.10
2023-07-05T01:31:43.803Z,14.10
2023-07-05T01:34:14.746Z,14.20
2023-07-05T01:36:42.357Z,14.20
2023-07-05T01:39:09.541Z,14.30
2023-07-05T01:41:36.496Z,14.30
2023-07-05T01:44:03.663Z,14.30
2023-07-05T01:46:37.836Z,14.40
2023-07-05T01:49:20.377Z,14.40
2023-07-05T01:52:05.198Z,14.40
2023-07-05T01:55:02.172Z,14.40
2023-07-05T01:57:41.166Z,14.40
2023-07-05T02:00:12.919Z,14.40
2023-07-05T02:02:48.158Z,14.40
2023-07-05T02:05:15.931Z,14.40
2023-07-05T02:07:45.275Z,14.40
2023-07-05T02:10:13.011Z,14.40
2023-07-05T02:12:39.822Z,14.40
2023-07-05T02:15:07.237Z,14.40
2023-07-05T02:17:34.108Z,14.40
2023-07-05T02:20:01.113Z,14.50
2023-07-05T02:22:28.205Z,14.60
2023-07-05T02:24:55.696Z,14.60
2023-07-05T02:27:22.965Z,14.60
2023-07-05T02:29:51.311Z,14.60
2023-07-05T02:32:18.323Z,14.60
2023-07-05T02:34:45.177Z,14.60
2023-07-05T02:37:12.474Z,14.60
2023-07-05T02:39:39.359Z,14.50
2023-07-05T02:42:06.755Z,14.60
2023-07-05T02:44:33.677Z,14.60
2023-07-05T02:47:00.665Z,14.60
2023-07-05T02:49:27.620Z,14.60
2023-07-05T02:51:56.179Z,14.70
2023-07-05T02:54:23.146Z,14.70
2023-07-05T02:56:50.125Z,14.70
2023-07-05T02:59:17.012Z,14.70
2023-07-05T03:01:43.924Z,14.70
2023-07-05T03:04:10.882Z,14.70
2023-07-05T03:06:37.746Z,14.70
2023-07-05T03:09:05.596Z,14.70
2023-07-05T03:11:32.455Z,14.70
2023-07-05T03:13:59.341Z,14.70
2023-07-05T03:16:26.397Z,14.80
2023-07-05T03:18:53.252Z,14.70
2023-07-05T03:21:20.093Z,14.70
2023-07-05T03:23:46.983Z,14.70
2023-07-05T03:26:14.449Z,14.70
2023-07-05T03:28:41.587Z,14.80
2023-07-05T03:31:14.862Z,14.80
2023-07-05T03:33:42.409Z,14.70
2023-07-05T03:36:13.056Z,14.80
2023-07-05T03:38:40.530Z,14.80
2023-07-05T03:41:14.623Z,14.80
2023-07-05T03:43:43.197Z,14.80
2023-07-05T03:46:12.644Z,14.80
2023-07-05T03:48:41.814Z,14.80
2023-07-05T03:51:11.640Z,14.80
2023-07-05T03:53:39.095Z,14.80
2023-07-05T03:56:08.948Z,14.80
2023-07-05T03:58:36.421Z,14.80
2023-07-05T04:01:30.437Z,14.80
2023-07-05T04:04:02.891Z,14.80
2023-07-05T04:06:32.031Z,14.80
2023-07-05T04:08:59.626Z,14.80
2023-07-05T04:11:26.857Z,14.80
2023-07-05T04:13:55.984Z,14.80
2023-07-05T04:16:25.626Z,14.80
2023-07-05T04:18:54.971Z,14.80
2023-07-05T04:21:22.468Z,14.90
2023-07-05T04:23:49.357Z,14.90
2023-07-05T04:26:19.707Z,14.90
2023-07-05T04:28:47.262Z,14.80
2023-07-05T04:31:18.641Z,14.80
2023-07-05T04:33:46.372Z,14.90
2023-07-05T04:36:26.859Z,14.80
2023-07-05T04:39:00.046Z,14.90
2023-07-05T04:41:27.699Z,14.90
2023-07-05T04:43:54.729Z,14.90
2023-07-05T04:46:22.659Z,14.90
2023-07-05T04:48:49.771Z,14.90
2023-07-05T04:51:16.717Z,14.90
2023-07-05T04:53:43.612Z,15.00
2023-07-05T04:56:13.460Z,15.00
2023-07-05T04:58:40.525Z,15.20
2023-07-05T05:01:09.255Z,15.20
2023-07-05T05:03:36.681Z,15.10
2023-07-05T05:06:03.652Z,15.10
2023-07-05T05:08:30.616Z,15.10
2023-07-05T05:11:00.233Z,15.10
2023-07-05T05:13:28.683Z,15.10
2023-07-05T05:15:56.976Z,15.10
2023-07-05T05:18:26.121Z,15.10
2023-07-05T05:20:53.212Z,15.00
2023-07-05T05:23:20.478Z,15.00
2023-07-05T05:25:48.166Z,14.90
2023-07-05T05:28:16.320Z,14.90
2023-07-05T05:30:45.394Z,14.90
2023-07-05T05:33:19.045Z,15.00
2023-07-05T05:35:50.459Z,15.00
2023-07-05T05:38:19.639Z,15.00
2023-07-05T05:40:49.632Z,14.90
2023-07-05T05:43:16.874Z,15.00
2023-07-05T05:45:43.952Z,15.00
2023-07-05T05:48:11.113Z,15.10
2023-07-05T05:50:38.086Z,15.10
2023-07-05T05:53:05.028Z,15.10
2023-07-05T05:55:31.894Z,15.10
2023-07-05T05:57:58.732Z,15.20
2023-07-05T06:00:25.627Z,15.20
2023-07-05T06:02:53.398Z,15.20
2023-07-05T06:05:20.470Z,15.20
2023-07-05T06:07:47.462Z,15.20
2023-07-05T06:10:14.340Z,15.30
2023-07-05T06:12:43.207Z,15.30
2023-07-05T06:15:14.985Z,15.30
2023-07-05T06:17:42.510Z,15.40
2023-07-05T06:20:12.910Z,15.40
2023-07-05T06:22:40.295Z,15.40
2023-07-05T06:25:08.076Z,15.30
2023-07-05T06:27:35.239Z,15.40
2023-07-05T06:30:02.308Z,15.40
2023-07-05T06:32:29.402Z,15.40
2023-07-05T06:34:56.470Z,15.40
2023-07-05T06:37:23.468Z,15.40
2023-07-05T06:39:50.403Z,15.50
2023-07-05T06:42:17.248Z,15.50
2023-07-05T06:44:45.239Z,15.50
2023-07-05T06:47:12.116Z,15.60
2023-07-05T06:49:40.652Z,15.60
2023-07-05T06:52:09.612Z,15.60
2023-07-05T06:54:36.453Z,15.60
2023-07-05T06:57:03.525Z,15.60
2023-07-05T06:59:30.339Z,15.50
2023-07-05T07:01:57.397Z,15.50
2023-07-05T07:04:24.354Z,15.60
2023-07-05T07:06:51.249Z,15.70
2023-07-05T07:09:18.067Z,15.80
2023-07-05T07:11:44.986Z,15.70
2023-07-05T07:14:11.918Z,15.60
2023-07-05T07:16:38.831Z,15.60
2023-07-05T07:19:05.695Z,15.60
2023-07-05T07:21:32.810Z,15.60
2023-07-05T07:23:59.769Z,15.70
2023-07-05T07:26:26.976Z,15.80
2023-07-05T07:28:56.071Z,15.80
2023-07-05T07:31:33.104Z,15.90
2023-07-05T07:34:08.725Z,15.90
2023-07-05T07:36:36.936Z,15.70
2023-07-05T07:39:04.208Z,15.70
2023-07-05T07:41:37.538Z,15.80
2023-07-05T07:44:09.534Z,15.70
2023-07-05T07:46:38.450Z,15.80
2023-07-05T07:49:07.546Z,15.90
2023-07-05T07:51:39.454Z,16.00
2023-07-05T07:54:10.211Z,16.00
2023-07-05T07:56:37.271Z,16.00
2023-07-05T07:59:08.154Z,16.10
2023-07-05T08:01:39.341Z,16.10
2023-07-05T08:04:12.456Z,16.30
2023-07-05T08:06:44.844Z,16.40
2023-07-05T08:09:15.335Z,16.40
2023-07-05T08:11:42.540Z,16.50
2023-07-05T08:14:10.505Z,16.50
2023-07-05T08:16:37.822Z,16.50
2023-07-05T08:19:04.769Z,16.50
2023-07-05T08:21:31.796Z,16.50
2023-07-05T08:24:04.071Z,16.60
2023-07-05T08:26:43.726Z,16.60
2023-07-05T08:29:10.988Z,16.50
2023-07-05T08:31:37.982Z,16.40
2023-07-05T08:34:04.818Z,16.50
2023-07-05T08:36:39.994Z,16.60
2023-07-05T08:39:08.155Z,16.60
2023-07-05T08:42:02.900Z,16.70
2023-07-05T08:44:46.476Z,16.80
2023-07-05T08:47:36.621Z,16.90
2023-07-05T08:52:50.273Z,17.10
2023-07-05T08:55:22.941Z,17.30
2023-07-05T08:57:55.808Z,17.30
2023-07-05T09:00:32.360Z,17.40
2023-07-05T09:02:59.410Z,17.50
2023-07-05T09:05:40.543Z,17.50
2023-07-05T09:08:56.560Z,17.50
2023-07-05T09:11:46.171Z,17.40
2023-07-05T09:14:47.231Z,17.40
2023-07-05T09:17:16.870Z,17.50
2023-07-05T09:19:49.651Z,17.60
2023-07-05T09:22:26.141Z,17.60
2023-07-05T09:24:54.030Z,17.50
2023-07-05T09:27:23.601Z,17.40
2023-07-05T09:30:11.460Z,17.40
2023-07-05T09:32:44.094Z,17.50
2023-07-05T09:35:19.722Z,17.50
2023-07-05T09:37:52.586Z,17.50
2023-07-05T09:40:23.729Z,17.70
2023-07-05T09:42:57.653Z,17.90
2023-07-05T09:45:24.789Z,18.10
2023-07-05T09:48:01.590Z,17.90
2023-07-05T09:50:29.210Z,17.90
2023-07-05T09:53:03.874Z,18.00
2023-07-05T09:55:32.507Z,18.10
2023-07-05T09:58:00.545Z,18.00
2023-07-05T10:00:37.709Z,18.10
2023-07-05T10:03:11.826Z,18.30
2023-07-05T10:05:40.243Z,18.50
2023-07-05T10:08:16.858Z,18.60
2023-07-05T10:10:44.283Z,18.70
2023-07-05T10:13:16.127Z,18.70
2023-07-05T10:15:45.808Z,18.70
2023-07-05T10:18:28.958Z,18.60
2023-07-05T10:20:58.865Z,18.70
2023-07-05T10:23:27.009Z,18.40
2023-07-05T10:25:58.281Z,18.50
2023-07-05T10:28:30.301Z,18.50
2023-07-05T10:31:02.676Z,18.50
2023-07-05T10:33:42.364Z,18.70
2023-07-05T10:36:12.097Z,18.80
2023-07-05T10:38:50.039Z,18.90
2023-07-05T10:41:33.406Z,19.10
2023-07-05T10:44:08.060Z,19.30
2023-07-05T10:46:39.248Z,19.20
2023-07-05T10:49:14.781Z,19.10
2023-07-05T10:51:48.969Z,19.10
2023-07-05T10:54:50.891Z,19.10
2023-07-05T10:57:35.705Z,19.20
2023-07-05T11:00:40.733Z,19.40
2023-07-05T11:03:18.153Z,19.50
2023-07-05T11:05:44.924Z,19.70
2023-07-05T11:08:21.518Z,20.00
2023-07-05T11:10:49.802Z,20.10
2023-07-05T11:13:18.891Z,20.30
2023-07-05T11:15:47.663Z,20.20
2023-07-05T11:18:20.841Z,20.20
2023-07-05T11:20:55.503Z,20.30
2023-07-05T11:23:47.499Z,20.20
2023-07-05T11:26:31.042Z,19.90
2023-07-05T11:28:57.993Z,19.90
2023-07-05T11:31:30.741Z,19.70
2023-07-05T11:34:22.793Z,19.90
2023-07-05T11:37:14.103Z,20.20
2023-07-05T11:39:49.488Z,20.20
2023-07-05T11:42:16.571Z,20.30
2023-07-05T11:44:51.163Z,20.50
2023-07-05T11:47:24.079Z,20.60
2023-07-05T11:50:06.211Z,20.60
2023-07-05T11:52:38.244Z,20.70
2023-07-05T11:55:12.249Z,20.90
2023-07-05T11:58:01.086Z,21.20
2023-07-05T12:00:36.438Z,21.10
2023-07-05T12:03:16.894Z,21.00
2023-07-05T12:05:45.611Z,20.90
2023-07-05T12:08:19.292Z,21.10
2023-07-05T12:10:53.338Z,21.10
2023-07-05T12:13:25.586Z,21.20
2023-07-05T12:15:54.722Z,21.20
2023-07-05T12:18:22.800Z,21.30
2023-07-05T12:20:55.648Z,21.40
2023-07-05T12:23:24.485Z,21.50
2023-07-05T12:25:54.625Z,21.60
2023-07-05T12:28:31.164Z,21.50
2023-07-05T12:31:04.474Z,21.50
2023-07-05T12:33:35.898Z,21.80
2023-07-05T12:36:11.792Z,21.70
2023-07-05T12:38:42.128Z,22.00
2023-07-05T12:41:23.841Z,22.00
2023-07-05T12:44:17.100Z,22.00
2023-07-05T12:46:45.826Z,22.10
2023-07-05T12:49:23.095Z,22.10
2023-07-05T12:51:56.104Z,22.00
2023-07-05T12:54:24.886Z,21.70
2023-07-05T12:56:54.777Z,21.70
2023-07-05T12:59:41.749Z,21.60
2023-07-05T13:02:18.142Z,21.70
2023-07-05T13:04:46.523Z,21.90
2023-07-05T13:07:17.347Z,21.90
2023-07-05T13:09:44.468Z,22.10
2023-07-05T13:12:11.562Z,22.10
2023-07-05T13:14:44.189Z,22.10
2023-07-05T13:17:33.352Z,22.00
2023-07-05T13:20:13.677Z,21.80
2023-07-05T13:22:58.572Z,21.70
2023-07-05T13:25:34.473Z,21.50
2023-07-05T13:28:03.778Z,21.70
2023-07-05T13:30:31.170Z,21.80
2023-07-05T13:33:00.589Z,21.80
2023-07-05T13:35:31.532Z,21.90
2023-07-05T13:38:00.767Z,21.90
2023-07-05T13:40:30.981Z,22.10
2023-07-05T13:42:58.956Z,22.30
2023-07-05T13:45:31.223Z,22.60
2023-07-05T13:48:01.272Z,22.70
2023-07-05T13:50:32.598Z,22.60
2023-07-05T13:53:00.243Z,22.40
2023-07-05T13:55:27.144Z,22.40
2023-07-05T13:58:03.891Z,22.40
2023-07-05T14:00:33.579Z,22.40
2023-07-05T14:03:02.288Z,22.60
2023-07-05T14:05:30.426Z,22.50
2023-07-05T14:07:59.469Z,22.60
2023-07-05T14:10:29.584Z,22.50
2023-07-05T14:12:58.178Z,22.50
2023-07-05T14:15:38.235Z,22.40
2023-07-05T14:18:06.118Z,22.60
2023-07-05T14:20:35.707Z,22.60
2023-07-05T14:23:04.674Z,22.50
2023-07-05T14:25:39.660Z,22.40
2023-07-05T14:28:06.540Z,22.50
2023-07-05T14:30:33.384Z,22.60
2023-07-05T14:33:00.330Z,22.70
2023-07-05T14:35:27.224Z,22.60
2023-07-05T14:37:55.038Z,22.70
2023-07-05T14:40:27.168Z,22.90
2023-07-05T14:42:54.356Z,23.10
2023-07-05T14:45:27.444Z,23.10
2023-07-05T14:47:56.566Z,22.80
2023-07-05T14:50:25.174Z,22.50
2023-07-05T14:52:54.816Z,22.10
2023-07-05T14:55:25.418Z,21.90
2023-07-05T14:57:52.946Z,21.70
2023-07-05T15:00:24.297Z,21.40
2023-07-05T15:02:57.597Z,21.30
2023-07-05T15:05:24.459Z,21.30
2023-07-05T15:07:51.261Z,21.40
2023-07-05T15:10:18.081Z,21.70
2023-07-05T15:12:46.298Z,21.60
2023-07-05T15:15:17.945Z,21.40
2023-07-05T15:17:45.525Z,21.50
2023-07-05T15:20:14.443Z,21.40
2023-07-05T15:22:41.625Z,21.30
2023-07-05T15:25:09.397Z,21.10
2023-07-05T15:27:36.318Z,21.00
2023-07-05T15:30:06.993Z,20.90
2023-07-05T15:32:38.332Z,21.10
2023-07-05T15:35:07.999Z,21.40
2023-07-05T15:37:35.927Z,21.60
2023-07-05T15:40:07.855Z,21.70
2023-07-05T15:42:35.436Z,21.90
2023-07-05T15:45:03.762Z,22.00
2023-07-05T15:47:30.865Z,22.10
2023-07-05T15:49:57.996Z,22.00
2023-07-05T15:52:25.119Z,21.80
2023-07-05T15:54:52.060Z,21.70
2023-07-05T15:57:19.477Z,21.60
2023-07-05T15:59:58.651Z,21.60
2023-07-05T16:02:28.505Z,21.70
2023-07-05T16:04:55.844Z,21.70
2023-07-05T16:07:23.494Z,21.70
2023-07-05T16:09:50.472Z,21.80
2023-07-05T16:12:17.334Z,21.80
2023-07-05T16:14:44.226Z,22.10
2023-07-05T16:17:11.089Z,22.40
2023-07-05T16:19:38.787Z,22.60
2023-07-05T16:22:06.809Z,22.90
2023-07-05T16:24:33.680Z,23.00
2023-07-05T16:27:00.507Z,23.10
2023-07-05T16:29:27.396Z,23.10
2023-07-05T16:31:54.273Z,23.20
2023-07-05T16:34:21.118Z,23.40
2023-07-05T16:36:48.032Z,23.60
2023-07-05T16:39:17.795Z,23.60
2023-07-05T16:41:49.676Z,23.80
2023-07-05T16:44:16.741Z,24.00
2023-07-05T16:46:45.682Z,24.10
2023-07-05T16:49:12.874Z,23.80
2023-07-05T16:51:39.718Z,23.30
2023-07-05T16:54:07.928Z,22.80
2023-07-05T16:56:35.018Z,22.40
2023-07-05T16:59:01.919Z,22.20
2023-07-05T17:01:29.018Z,22.00
2023-07-05T17:03:56.142Z,21.90
2023-07-05T17:06:23.601Z,21.90
2023-07-05T17:08:50.586Z,22.00
2023-07-05T17:11:17.950Z,22.10
2023-07-05T17:13:44.867Z,22.20
2023-07-05T17:16:11.926Z,22.50
2023-07-05T17:18:38.833Z,22.60
2023-07-05T17:21:08.781Z,22.80
2023-07-05T17:23:36.083Z,23.00
2023-07-05T17:26:07.301Z,22.90
2023-07-05T17:28:42.709Z,22.90
2023-07-05T17:31:12.321Z,22.60
2023-07-05T17:33:39.386Z,22.40
2023-07-05T17:36:11.212Z,22.00
2023-07-05T17:38:38.717Z,21.70
2023-07-05T17:41:07.194Z,21.50
2023-07-05T17:43:35.024Z,21.40
2023-07-05T17:46:20.018Z,21.10
2023-07-05T17:48:47.273Z,20.70
2023-07-05T17:51:14.391Z,20.50
2023-07-05T17:53:41.290Z,20.30
2023-07-05T17:56:09.765Z,20.10
2023-07-05T17:58:36.769Z,19.90
2023-07-05T18:01:10.117Z,19.70
2023-07-05T18:03:38.321Z,19.40
2023-07-05T18:06:07.321Z,19.30
2023-07-05T18:08:34.794Z,19.10
2023-07-05T18:11:04.935Z,19.00
2023-07-05T18:13:35.284Z,18.90
2023-07-05T18:16:05.452Z,18.90
2023-07-05T18:18:33.238Z,18.80
2023-07-05T18:21:01.542Z,18.80
2023-07-05T18:23:29.960Z,18.70
2023-07-05T18:25:59.023Z,18.60
2023-07-05T18:28:26.995Z,18.60
2023-07-05T18:31:00.114Z,18.50
2023-07-05T18:33:28.825Z,18.40
2023-07-05T18:35:57.075Z,18.30
2023-07-05T18:38:26.323Z,18.40
2023-07-05T18:40:53.612Z,18.20
2023-07-05T18:43:23.596Z,18.20
2023-07-05T18:45:56.299Z,18.10
2023-07-05T18:48:24.221Z,18.00
2023-07-05T18:50:56.106Z,17.90
2023-07-05T18:53:24.749Z,17.90
2023-07-05T18:56:03.028Z,17.80
2023-07-05T18:58:30.798Z,17.80
2023-07-05T19:00:59.309Z,17.80
2023-07-05T19:03:26.804Z,17.70
2023-07-05T19:06:00.049Z,17.60
2023-07-05T19:08:27.528Z,17.60
2023-07-05T19:11:17.304Z,17.50
2023-07-05T19:13:47.449Z,17.40
2023-07-05T19:16:15.221Z,17.40
2023-07-05T19:18:42.442Z,17.30
2023-07-05T19:21:09.325Z,17.30
2023-07-05T19:23:37.729Z,17.20
2023-07-05T19:26:08.884Z,17.20
2023-07-05T19:28:38.132Z,17.00
2023-07-05T19:31:09.909Z,17.00
2023-07-05T19:33:37.195Z,16.90
2023-07-05T19:36:04.329Z,16.80
2023-07-05T19:38:31.475Z,16.70
2023-07-05T19:40:58.292Z,16.50
2023-07-05T19:43:25.444Z,16.40
2023-07-05T19:45:54.303Z,16.30
2023-07-05T19:48:21.830Z,16.10
2023-07-05T19:50:49.519Z,16.00
2023-07-05T19:53:16.680Z,16.00
2023-07-05T19:55:47.250Z,15.90
2023-07-05T19:58:14.220Z,15.80
2023-07-05T20:00:43.011Z,15.70
2023-07-05T20:03:13.200Z,15.70
2023-07-05T20:05:43.730Z,15.70
2023-07-05T20:08:10.542Z,15.60
2023-07-05T20:10:38.772Z,15.60
2023-07-05T20:13:05.619Z,15.60
2023-07-05T20:15:33.882Z,15.50
2023-07-05T20:18:04.787Z,15.50
2023-07-05T20:20:33.214Z,15.50
2023-07-05T20:23:00.838Z,15.50
2023-07-05T20:25:29.556Z,15.50
2023-07-05T20:27:56.591Z,15.40
2023-07-05T20:30:24.061Z,15.40
2023-07-05T20:32:51.096Z,15.30
2023-07-05T20:35:20.174Z,15.30
2023-07-05T20:37:59.284Z,15.30
2023-07-05T20:40:30.807Z,15.30
2023-07-05T20:42:58.771Z,15.30
2023-07-05T20:45:27.398Z,15.30
2023-07-05T20:47:54.449Z,15.20
2023-07-05T20:50:21.507Z,15.20
2023-07-05T20:52:48.442Z,15.20
2023-07-05T20:55:16.837Z,15.20
2023-07-05T20:57:43.760Z,15.10
2023-07-05T21:00:11.613Z,15.10
2023-07-05T21:02:38.554Z,15.00
2023-07-05T21:05:07.507Z,15.00
2023-07-05T21:07:34.439Z,15.00
2023-07-05T21:10:01.414Z,14.90
2023-07-05T21:12:28.366Z,14.90
2023-07-05T21:14:55.250Z,14.90
2023-07-05T21:17:22.288Z,14.90
2023-07-05T21:19:49.472Z,14.90
2023-07-05T21:22:17.095Z,14.90
2023-07-05T21:24:44.088Z,14.80
2023-07-05T21:27:10.947Z,14.80
2023-07-05T21:29:37.837Z,14.70
2023-07-05T21:32:08.294Z,14.70
2023-07-05T21:34:36.893Z,14.60
2023-07-05T21:37:03.885Z,14.60
2023-07-05T21:39:31.669Z,14.60
2023-07-05T21:41:58.518Z,14.50
2023-07-05T21:44:25.499Z,14.50
2023-07-05T21:46:52.989Z,14.50
2023-07-05T21:49:19.859Z,14.50
2023-07-05T21:51:49.351Z,14.50
2023-07-05T21:54:16.280Z,14.50
2023-07-05T21:56:43.434Z,14.40
2023-07-05T21:59:11.224Z,14.40
2023-07-05T22:01:38.997Z,14.40
2023-07-05T22:04:07.150Z,14.30
2023-07-05T22:06:34.384Z,14.20
2023-07-05T22:09:03.993Z,14.20
2023-07-05T22:11:30.833Z,14.20
2023-07-05T22:13:58.668Z,14.20
2023-07-05T22:16:28.384Z,14.20
2023-07-05T22:18:56.520Z,14.20
2023-07-05T22:21:25.038Z,14.20
2023-07-05T22:23:53.169Z,14.20
2023-07-05T22:26:22.139Z,14.20
2023-07-05T22:28:50.040Z,14.20
2023-07-05T22:31:17.789Z,14.20
2023-07-05T22:33:45.406Z,14.10
2023-07-05T22:36:14.492Z,14.10
2023-07-05T22:38:41.985Z,14.10
2023-07-05T22:41:09.216Z,14.10
2023-07-05T22:43:36.235Z,14.20
2023-07-05T22:46:05.296Z,14.20
2023-07-05T22:48:34.509Z,14.10
2023-07-05T22:51:02.967Z,14.20
2023-07-05T22:53:30.317Z,14.20
2023-07-05T22:55:58.181Z,14.10
2023-07-05T22:58:27.987Z,14.20
2023-07-05T23:01:07.467Z,14.10
2023-07-05T23:03:36.542Z,14.10
2023-07-05T23:06:13.844Z,14.10
2023-07-05T23:08:41.970Z,14.10
2023-07-05T23:11:12.930Z,14.10
2023-07-05T23:13:45.416Z,14.20
2023-07-05T23:16:18.150Z,14.10
2023-07-05T23:18:46.498Z,14.20
2023-07-05T23:21:15.557Z,14.20
2023-07-05T23:23:42.465Z,14.20
2023-07-05T23:26:16.208Z,14.20
2023-07-05T23:28:43.092Z,14.20
2023-07-05T23:31:17.984Z,14.20
2023-07-05T23:33:49.955Z,14.20
2023-07-05T23:36:17.896Z,14.20
2023-07-05T23:38:46.015Z,14.20
2023-07-05T23:41:13.129Z,14.20
2023-07-05T23:43:43.143Z,14.20
2023-07-05T23:46:11.103Z,14.20
2023-07-05T23:48:41.426Z,14.20
2023-07-05T23:51:09.161Z,14.20
2023-07-05T23:53:36.337Z,14.30
2023-07-05T23:56:04.059Z,14.30
2023-07-05T23:58:31.685Z,14.30
